.
WxDataArchive / Data Records for 2011-09-22
2011-09-21 September 2011 2011-09-23

Data Records for Thursday, 22 September 2011

Time	Temp	Chill	HIndex	Humid	Dewpt	 Wind 	HiWind	WindDir	Rain 	Barom 
-----	----	-----	------	-----	-----	------	------	-------	-----	----- 
00:00	59.8	59.8	59.8	62	46.8	0	0	---	0.00	30.017 
00:05	59.5	59.5	59.5	62	46.5	0	0	---	0.00	30.017 
00:10	59.2	59.2	59.2	63	46.6	0	0	---	0.00	30.017 
00:15	58.9	58.9	58.9	65	47.2	0	0	---	0.00	30.013 
00:20	58.4	58.4	58.4	65	46.7	0	0	---	0.00	30.013 
00:25	58.1	58.1	58.1	65	46.4	0	0	---	0.00	30.013 
00:30	57.5	57.5	57.5	66	46.2	0	0	---	0.00	30.013 
00:35	57.0	57.0	57.0	68	46.5	0	0	---	0.00	30.013 
00:40	56.6	56.6	56.6	70	46.9	0	0	---	0.00	30.013 
00:45	56.3	56.3	56.3	71	47.0	0	0	---	0.00	30.012 
00:50	55.9	55.9	55.9	73	47.4	0	0	---	0.00	30.012 
00:55	55.6	55.6	55.6	73	47.1	0	0	---	0.00	30.012 
01:00	55.3	55.3	55.3	74	47.2	0	0	---	0.00	30.011 
01:05	55.0	55.0	55.0	75	47.2	0	0	---	0.00	30.011 
01:10	54.7	54.7	54.7	76	47.3	0	0	---	0.00	30.011 
01:15	54.4	54.4	54.4	77	47.3	0	0	---	0.00	30.011 
01:20	54.2	54.2	54.2	77	47.1	0	0	---	0.00	30.011 
01:25	54.1	54.1	54.1	77	47.0	0	0	---	0.00	30.011 
01:30	53.8	53.8	53.8	78	47.1	0	0	---	0.00	30.015 
01:35	53.5	53.5	53.5	80	47.5	0	0	---	0.00	30.015 
01:40	53.3	53.3	53.3	80	47.3	0	0	---	0.00	30.015 
01:45	53.2	53.2	53.2	81	47.5	0	0	---	0.00	30.020 
01:50	53.1	53.1	53.1	81	47.4	0	0	---	0.00	30.020 
01:55	52.9	52.9	52.9	82	47.6	0	0	---	0.00	30.020 
02:00	52.6	52.6	52.6	83	47.6	0	0	---	0.00	30.023 
02:05	52.5	52.5	52.5	84	47.8	0	0	---	0.00	30.023 
02:10	52.2	52.2	52.2	84	47.5	0	0	---	0.00	30.023 
02:15	52.0	52.0	52.0	84	47.3	0	0	---	0.00	30.022 
02:20	51.9	51.9	51.9	84	47.2	0	0	---	0.00	30.022 
02:25	51.7	51.7	51.7	85	47.3	0	0	---	0.00	30.022 
02:30	51.6	51.6	51.6	85	47.2	0	0	---	0.00	30.020 
02:35	51.3	51.3	51.3	86	47.3	0	0	---	0.00	30.020 
02:40	51.1	51.1	51.1	86	47.1	0	0	---	0.00	30.020 
02:45	51.0	51.0	51.0	86	47.0	0	0	---	0.00	30.023 
02:50	50.8	50.8	50.8	87	47.1	0	0	---	0.00	30.023 
02:55	50.7	50.7	50.7	87	47.0	0	0	---	0.00	30.023 
03:00	50.7	50.7	50.7	87	47.0	0	0	---	0.00	30.024 
03:05	50.5	50.5	50.5	88	47.1	0	0	---	0.00	30.024 
03:10	50.5	50.5	50.5	88	47.1	0	0	---	0.00	30.024 
03:15	50.5	50.5	50.5	88	47.1	0	0	---	0.00	30.021 
03:20	50.5	50.5	50.5	88	47.1	0	0	---	0.00	30.021 
03:25	50.5	50.5	50.5	89	47.4	0	0	---	0.00	30.021 
03:30	50.5	50.5	50.5	89	47.4	0	0	---	0.00	30.022 
03:35	50.4	50.4	50.4	89	47.3	0	0	---	0.00	30.022 
03:40	50.5	50.5	50.5	89	47.4	0	0	---	0.00	30.022 
03:45	50.5	50.5	50.5	90	47.7	0	0	---	0.00	30.022 
03:50	50.7	50.7	50.7	90	47.9	0	0	---	0.00	30.022 
03:55	50.7	50.7	50.7	90	47.9	0	0	---	0.00	30.022 
04:00	50.8	50.8	50.8	90	48.0	0	0	---	0.00	30.022 
04:05	50.7	50.7	50.7	90	47.9	0	0	---	0.00	30.022 
04:10	50.7	50.7	50.7	90	47.9	0	0	---	0.00	30.022 
04:15	50.7	50.7	50.7	90	47.9	0	0	---	0.00	30.022 
04:20	50.7	50.7	50.7	90	47.9	0	0	---	0.00	30.022 
04:25	50.5	50.5	50.5	90	47.7	0	0	---	0.00	30.022 
04:30	50.5	50.5	50.5	90	47.7	0	0	---	0.00	30.026 
04:35	50.4	50.4	50.4	90	47.6	0	0	---	0.00	30.026 
04:40	50.4	50.4	50.4	90	47.6	0	0	---	0.00	30.026 
04:45	50.2	50.2	50.2	90	47.4	0	0	---	0.00	30.029 
04:50	50.2	50.2	50.2	90	47.4	0	0	---	0.00	30.029 
04:55	50.2	50.2	50.2	91	47.7	0	0	---	0.00	30.029 
05:00	50.1	50.1	50.1	91	47.6	0	0	---	0.00	30.030 
05:05	49.9	49.9	49.9	91	47.4	0	0	---	0.00	30.030 
05:10	49.8	49.8	49.8	91	47.3	0	0	---	0.00	30.030 
05:15	49.6	49.6	49.6	91	47.1	0	0	---	0.00	30.032 
05:20	49.5	49.5	49.5	91	47.0	0	0	---	0.00	30.032 
05:25	49.4	49.4	49.4	91	46.9	0	0	---	0.00	30.032 
05:30	49.4	49.4	49.4	91	46.9	0	0	---	0.00	30.033 
05:35	49.2	49.2	49.2	92	47.0	0	0	---	0.00	30.033 
05:40	49.2	49.2	49.2	92	47.0	0	0	---	0.00	30.033 
05:45	49.1	49.1	49.1	92	46.9	0	0	---	0.00	30.034 
05:50	49.1	49.1	49.1	92	46.9	0	0	---	0.00	30.034 
05:55	48.9	48.9	48.9	92	46.7	0	0	---	0.00	30.034 
06:00	48.9	48.9	48.9	92	46.7	0	0	---	0.00	30.042 
06:05	48.9	48.9	48.9	92	46.7	0	0	---	0.00	30.042 
06:10	49.1	49.1	49.1	92	46.9	0	0	---	0.00	30.042 
06:15	49.1	49.1	49.1	92	46.9	0	0	---	0.00	30.049 
06:20	49.1	49.1	49.1	92	46.9	0	0	---	0.00	30.049 
06:25	49.1	49.1	49.1	92	46.9	0	0	---	0.00	30.049 
06:30	49.2	49.2	49.2	92	47.0	0	0	---	0.00	30.052 
06:35	49.2	49.2	49.2	93	47.3	0	0	---	0.00	30.052 
06:40	49.2	49.2	49.2	93	47.3	0	0	---	0.00	30.052 
06:45	49.5	49.5	49.5	93	47.6	0	0	---	0.00	30.053 
06:50	49.6	49.6	49.6	93	47.7	0	0	---	0.00	30.053 
06:55	49.9	49.9	49.9	93	48.0	0	0	---	0.00	30.053 
07:00	50.1	50.1	50.1	93	48.2	0	0	---	0.00	30.052 
07:05	50.2	50.2	50.2	93	48.3	0	0	---	0.00	30.052 
07:10	50.4	50.4	50.4	93	48.5	0	0	---	0.00	30.052 
07:15	50.5	50.5	50.5	93	48.6	0	0	---	0.00	30.051 
07:20	50.8	50.8	50.8	93	48.8	0	0	---	0.00	30.051 
07:25	51.0	51.0	51.0	93	49.0	0	0	---	0.00	30.051 
07:30	51.1	51.1	51.1	93	49.1	0	0	---	0.00	30.051 
07:35	51.3	51.3	51.3	93	49.3	0	0	---	0.00	30.051 
07:40	51.6	51.6	51.6	93	49.6	0	0	---	0.00	30.051 
07:45	51.9	51.9	51.9	93	49.9	0	0	---	0.00	30.059 
07:50	52.0	52.0	52.0	93	50.0	0	0	---	0.00	30.059 
07:55	52.2	52.2	52.2	93	50.2	0	0	---	0.00	30.059 
08:00	52.3	52.3	52.3	93	50.3	0	0	---	0.00	30.059 
08:05	52.5	52.5	52.5	93	50.5	0	0	---	0.00	30.059 
08:10	52.6	52.6	52.6	92	50.3	0	0	---	0.00	30.059 
08:15	52.8	52.8	52.8	92	50.5	0	0	---	0.00	30.065 
08:20	52.9	52.9	52.9	92	50.6	0	0	---	0.00	30.065 
08:25	53.1	53.1	53.1	92	50.8	0	0	---	0.00	30.065 
08:30	53.2	53.2	53.2	92	50.9	0	0	---	0.00	30.064 
08:35	53.3	53.3	53.3	92	51.0	0	0	---	0.00	30.064 
08:40	53.5	53.5	53.5	92	51.2	0	0	---	0.00	30.064 
08:45	53.8	53.8	53.8	92	51.5	0	0	---	0.00	30.066 
08:50	54.1	54.1	54.1	91	51.5	0	0	---	0.00	30.066 
08:55	54.4	54.4	54.4	91	51.8	0	0	---	0.00	30.066 
09:00	54.8	54.8	54.8	90	51.9	0	1	270	0.00	30.070 
09:05	55.1	55.1	55.1	89	51.9	0	0	---	0.00	30.070 
09:10	55.6	55.6	55.6	88	52.1	0	0	---	0.00	30.070 
09:15	55.9	55.9	55.9	87	52.1	0	1	270	0.00	30.079 
09:20	56.3	56.3	56.3	86	52.2	0	1	270	0.00	30.079 
09:25	56.7	56.7	56.7	84	51.9	0	1	270	0.00	30.079 
09:30	57.2	57.2	57.2	83	52.1	0	1	270	0.00	30.082 
09:35	57.5	57.5	57.5	82	52.0	0	1	270	0.00	30.082 
09:40	57.8	57.8	57.8	81	52.0	0	1	270	0.00	30.082 
09:45	58.3	58.3	58.3	80	52.2	0	0	---	0.00	30.079 
09:50	58.7	58.7	58.7	80	52.5	0	0	---	0.00	30.079 
09:55	59.3	59.3	59.3	78	52.4	0	1	270	0.00	30.079 
10:00	59.9	59.9	59.9	76	52.3	0	2	270	0.00	30.083 
10:05	60.2	60.2	60.2	73	51.5	0	2	270	0.00	30.083 
10:10	60.5	60.5	60.5	73	51.8	0	1	270	0.00	30.083 
10:15	60.7	60.7	60.7	71	51.2	2	4	270	0.00	30.096 
10:20	60.9	60.9	60.9	72	51.8	0	2	270	0.00	30.096 
10:25	61.0	61.0	61.0	73	52.3	0	3	270	0.00	30.096 
10:30	61.5	61.5	61.5	71	52.0	1	3	270	0.00	30.093 
10:35	62.3	62.3	62.3	69	52.0	1	3	270	0.00	30.093 
10:40	62.7	62.7	62.7	67	51.6	1	3	270	0.00	30.093 
10:45	63.2	63.2	63.2	65	51.2	2	3	270	0.00	30.097 
10:50	63.7	63.7	63.7	64	51.3	1	4	248	0.00	30.097 
10:55	64.0	64.0	64.0	61	50.3	2	4	248	0.00	30.097 
11:00	63.9	63.9	63.9	60	49.7	1	4	248	0.00	30.104 
11:05	64.2	64.2	64.2	62	50.9	1	3	248	0.00	30.104 
11:10	65.0	65.0	65.0	59	50.3	0	2	248	0.00	30.104 
11:15	65.5	65.5	65.5	57	49.9	1	3	248	0.00	30.098 
11:20	65.8	65.8	65.8	58	50.6	1	3	248	0.00	30.098 
11:25	66.4	66.4	66.4	57	50.7	1	2	248	0.00	30.098 
11:30	66.8	66.8	66.8	54	49.6	2	4	248	0.00	30.100 
11:35	67.1	67.1	67.1	56	50.9	1	3	248	0.00	30.100 
11:40	67.1	67.1	67.1	55	50.4	2	4	338	0.00	30.100 
11:45	67.4	67.4	67.4	54	50.2	1	3	270	0.00	30.096 
11:50	67.6	67.6	67.6	53	49.9	2	4	270	0.00	30.096 
11:55	68.1	68.1	68.1	52	49.8	1	4	270	0.00	30.096 
12:00	68.1	68.1	68.1	50	48.7	2	5	270	0.00	30.099 
12:05	67.9	67.9	67.9	53	50.1	3	5	270	0.00	30.099 
12:10	67.8	67.8	67.8	51	49.0	2	5	270	0.00	30.099 
12:15	68.3	68.3	68.3	54	51.0	1	3	270	0.00	30.100 
12:20	68.8	68.8	68.8	51	49.9	2	4	292	0.00	30.100 
12:25	68.9	68.9	68.9	50	49.5	2	6	225	0.00	30.100 
12:30	69.4	69.4	69.4	50	49.9	1	2	225	0.00	30.099 
12:35	69.4	69.4	69.4	47	48.3	2	4	270	0.00	30.099 
12:40	69.6	69.6	69.6	51	50.7	1	4	270	0.00	30.099 
12:45	69.8	69.8	69.8	48	49.2	2	5	270	0.00	30.103 
12:50	69.4	69.4	69.4	46	47.7	3	5	292	0.00	30.103 
12:55	69.3	69.3	69.3	47	48.2	3	5	270	0.00	30.103 
13:00	69.6	69.6	69.6	46	47.9	1	4	270	0.00	30.095 
13:05	70.1	70.1	70.1	46	48.3	1	3	270	0.00	30.095 
13:10	70.3	70.3	70.3	46	48.5	3	6	270	0.00	30.095 
13:15	70.1	70.1	70.1	48	49.5	2	4	270	0.00	30.098 
13:20	70.3	70.3	70.3	46	48.5	2	6	270	0.00	30.098 
13:25	69.8	69.8	69.8	46	48.1	2	4	270	0.00	30.098 
13:30	69.9	69.9	69.9	48	49.3	1	4	270	0.00	30.095 
13:35	70.3	70.3	70.3	50	50.8	2	5	248	0.00	30.095 
13:40	70.6	70.6	70.6	49	50.5	2	5	270	0.00	30.095 
13:45	70.8	70.8	70.8	49	50.7	1	4	338	0.00	30.089 
13:50	70.9	70.9	70.9	48	50.2	1	5	225	0.00	30.089 
13:55	70.9	70.9	70.9	46	49.1	1	4	292	0.00	30.089 
14:00	71.1	71.1	71.1	48	50.4	1	4	248	0.00	30.084 
14:05	71.1	71.1	71.1	49	51.0	1	4	248	0.00	30.084 
14:10	70.9	70.9	70.9	46	49.1	2	4	248	0.00	30.084 
14:15	70.3	70.3	70.3	49	50.2	1	3	248	0.00	30.093 
14:20	70.1	70.1	70.1	49	50.0	1	5	270	0.00	30.093 
14:25	70.1	70.1	70.1	49	50.0	1	4	270	0.00	30.093 
14:30	70.3	70.3	70.3	50	50.8	1	3	248	0.00	30.087 
14:35	70.4	70.4	70.4	50	50.9	1	4	270	0.00	30.087 
14:40	70.8	70.8	70.8	49	50.7	0	2	270	0.00	30.087 
14:45	70.9	70.9	70.9	48	50.2	1	4	270	0.00	30.083 
14:50	71.3	71.3	71.3	48	50.6	1	4	248	0.00	30.083 
14:55	71.5	71.5	71.5	45	49.0	2	6	248	0.00	30.083 
15:00	70.8	70.8	70.8	46	49.0	2	6	270	0.00	30.081 
15:05	70.3	70.3	70.3	46	48.5	2	4	248	0.00	30.081 
15:10	70.4	70.4	70.4	47	49.2	1	4	270	0.00	30.081 
15:15	70.9	70.9	70.9	47	49.7	1	3	270	0.00	30.075 
15:20	70.9	70.9	70.9	45	48.5	2	5	248	0.00	30.075 
15:25	70.8	70.8	70.8	44	47.8	2	5	270	0.00	30.075 
15:30	70.4	70.4	70.4	45	48.0	1	4	270	0.00	30.072 
15:35	70.6	70.6	70.6	45	48.2	1	4	292	0.00	30.072 
15:40	70.4	70.4	70.4	44	47.4	1	4	225	0.00	30.072 
15:45	69.9	69.9	69.9	44	47.0	2	4	270	0.00	30.081 
15:50	69.4	69.4	69.4	44	46.5	1	4	270	0.00	30.081 
15:55	68.9	68.9	68.9	44	46.1	1	6	270	0.00	30.081 
16:00	68.8	68.8	68.8	43	45.4	1	6	225	0.00	30.077 
16:05	68.6	68.6	68.6	44	45.8	1	3	270	0.00	30.077 
16:10	68.6	68.6	68.6	44	45.8	1	4	270	0.00	30.077 
16:15	68.6	68.6	68.6	46	47.0	0	5	248	0.00	30.079 
16:20	68.8	68.8	68.8	46	47.2	0	2	225	0.00	30.079 
16:25	68.9	68.9	68.9	46	47.3	1	4	248	0.00	30.079 
16:30	68.8	68.8	68.8	46	47.2	0	3	270	0.00	30.079 
16:35	68.4	68.4	68.4	46	46.8	0	3	270	0.00	30.079 
16:40	68.1	68.1	68.1	46	46.5	1	3	270	0.00	30.079 
16:45	67.9	67.9	67.9	47	46.9	0	2	270	0.00	30.073 
16:50	67.8	67.8	67.8	48	47.4	0	2	270	0.00	30.073 
16:55	67.8	67.8	67.8	49	47.9	0	1	270	0.00	30.073 
17:00	67.6	67.6	67.6	48	47.2	0	4	225	0.00	30.074 
17:05	67.6	67.6	67.6	49	47.8	0	2	248	0.00	30.074 
17:10	67.4	67.4	67.4	48	47.0	0	3	248	0.00	30.074 
17:15	67.4	67.4	67.4	48	47.0	0	2	248	0.00	30.073 
17:20	67.4	67.4	67.4	48	47.0	0	2	248	0.00	30.073 
17:25	67.4	67.4	67.4	49	47.6	0	2	248	0.00	30.073 
17:30	67.4	67.4	67.4	48	47.0	1	4	248	0.00	30.085 
17:35	67.3	67.3	67.3	49	47.5	1	4	270	0.00	30.085 
17:40	67.1	67.1	67.1	49	47.3	0	3	270	0.00	30.085 
17:45	66.9	66.9	66.9	50	47.6	0	2	270	0.00	30.084 
17:50	66.8	66.8	66.8	49	47.0	1	4	270	0.00	30.084 
17:55	66.8	66.8	66.8	50	47.6	1	3	270	0.00	30.084 
18:00	66.8	66.8	66.8	49	47.0	2	4	270	0.00	30.085 
18:05	66.6	66.6	66.6	50	47.4	1	4	338	0.00	30.085 
18:10	66.6	66.6	66.6	50	47.4	1	3	338	0.00	30.085 
18:15	66.4	66.4	66.4	50	47.2	1	4	270	0.00	30.074 
18:20	66.3	66.3	66.3	50	47.1	1	4	270	0.00	30.074 
18:25	66.1	66.1	66.1	50	46.9	1	4	270	0.00	30.074 
18:30	66.0	66.0	66.0	51	47.3	0	2	270	0.00	30.075 
18:35	65.8	65.8	65.8	51	47.2	0	2	270	0.00	30.075 
18:40	65.8	65.8	65.8	51	47.2	1	3	292	0.00	30.075 
18:45	65.6	65.6	65.6	51	47.0	1	3	292	0.00	30.075 
18:50	65.5	65.5	65.5	52	47.4	0	2	292	0.00	30.075 
18:55	65.3	65.3	65.3	53	47.7	0	2	292	0.00	30.075 
19:00	65.2	65.2	65.2	53	47.6	1	3	292	0.00	30.080 
19:05	65.0	65.0	65.0	52	46.9	2	4	315	0.00	30.080 
19:10	64.8	64.8	64.8	53	47.3	1	3	248	0.00	30.080 
19:15	64.8	64.8	64.8	53	47.3	1	4	248	0.00	30.085 
19:20	64.7	64.7	64.7	54	47.7	0	1	270	0.00	30.085 
19:25	64.5	64.5	64.5	53	47.0	0	1	270	0.00	30.085 
19:30	64.3	64.3	64.3	53	46.8	0	2	270	0.00	30.088 
19:35	64.2	64.2	64.2	54	47.2	0	2	270	0.00	30.088 
19:40	64.0	64.0	64.0	54	47.0	0	1	270	0.00	30.088 
19:45	63.9	63.9	63.9	55	47.4	0	2	270	0.00	30.090 
19:50	63.5	63.5	63.5	57	48.0	2	4	270	0.00	30.090 
19:55	62.7	62.7	62.7	59	48.2	2	6	270	0.00	30.090 
20:00	62.3	62.3	62.3	58	47.3	1	4	270	0.00	30.101 
20:05	62.0	62.0	62.0	61	48.4	0	1	270	0.00	30.101 
20:10	61.6	61.6	61.6	63	48.9	0	1	270	0.00	30.101 
20:15	61.2	61.2	61.2	66	49.7	0	2	270	0.00	30.105 
20:20	60.5	60.5	60.5	68	49.9	0	2	270	0.01	30.105 
20:25	59.8	59.8	59.8	71	50.4	0	1	270	0.00	30.105 
20:30	59.3	59.3	59.3	73	50.6	0	1	270	0.00	30.114 
20:35	58.9	58.9	58.9	76	51.3	0	0	---	0.00	30.114 
20:40	58.6	58.6	58.6	77	51.4	0	0	---	0.00	30.114 
20:45	58.3	58.3	58.3	79	51.8	0	0	---	0.00	30.127 
20:50	58.0	58.0	58.0	80	51.9	0	1	270	0.01	30.127 
20:55	57.8	57.8	57.8	81	52.0	0	1	270	0.00	30.127 
21:00	57.6	57.6	57.6	82	52.1	0	1	270	0.00	30.138 
21:05	57.5	57.5	57.5	83	52.4	0	1	270	0.00	30.138 
21:10	57.2	57.2	57.2	84	52.4	0	1	270	0.01	30.138 
21:15	56.9	56.9	56.9	84	52.1	0	0	---	0.00	30.142 
21:20	56.7	56.7	56.7	84	51.9	0	1	270	0.01	30.142 
21:25	56.5	56.5	56.5	85	52.0	0	1	270	0.00	30.142 
21:30	56.2	56.2	56.2	86	52.1	0	1	270	0.01	30.142 
21:35	56.0	56.0	56.0	86	51.9	0	0	---	0.00	30.142 
21:40	55.9	55.9	55.9	87	52.1	0	0	---	0.01	30.142 
21:45	55.7	55.7	55.7	88	52.2	0	0	---	0.00	30.134 
21:50	55.4	55.4	55.4	88	51.9	0	0	---	0.00	30.134 
21:55	55.4	55.4	55.4	88	51.9	0	0	---	0.01	30.134 
22:00	55.3	55.3	55.3	89	52.1	0	0	---	0.00	30.131 
22:05	55.1	55.1	55.1	89	51.9	0	0	---	0.00	30.131 
22:10	55.1	55.1	55.1	89	51.9	0	0	---	0.00	30.131 
22:15	55.1	55.1	55.1	90	52.2	0	0	---	0.01	30.128 
22:20	55.0	55.0	55.0	90	52.1	0	0	---	0.00	30.128 
22:25	54.8	54.8	54.8	91	52.2	0	0	---	0.00	30.128 
22:30	54.7	54.7	54.7	91	52.1	0	0	---	0.00	30.129 
22:35	54.7	54.7	54.7	91	52.1	0	0	---	0.00	30.129 
22:40	54.7	54.7	54.7	91	52.1	0	0	---	0.00	30.129 
22:45	54.5	54.5	54.5	91	51.9	0	0	---	0.00	30.118 
22:50	54.5	54.5	54.5	92	52.2	0	0	---	0.00	30.118 
22:55	54.5	54.5	54.5	92	52.2	0	0	---	0.01	30.118 
23:00	54.5	54.5	54.5	92	52.2	0	0	---	0.00	30.116 
23:05	54.5	54.5	54.5	92	52.2	0	0	---	0.01	30.116 
23:10	54.5	54.5	54.5	92	52.2	0	0	---	0.00	30.116 
23:15	54.7	54.7	54.7	92	52.4	0	0	---	0.00	30.128 
23:20	54.7	54.7	54.7	92	52.4	0	0	---	0.00	30.128 
23:25	54.7	54.7	54.7	93	52.7	0	0	---	0.00	30.128 
23:30	54.7	54.7	54.7	93	52.7	0	0	---	0.00	30.126 
23:35	54.7	54.7	54.7	93	52.7	0	0	---	0.01	30.126 
23:40	54.5	54.5	54.5	93	52.5	0	0	---	0.00	30.126 
23:45	54.5	54.5	54.5	93	52.5	0	0	---	0.01	30.128 
23:50	54.5	54.5	54.5	93	52.5	0	0	---	0.00	30.128 
23:55	54.5	54.5	54.5	93	52.5	0	0	---	0.01	30.128 

CoCoRaHS
IN-AL-39
A2 Web Hosting
Creative Commons License
GoDaddy
search engine by freefind advanced

loaded 2018-11-16 08:53:15 • last modified 2010-11-18 10:43:29
Privacy PolicyDisclaimer
• wx.awcolley.com is powered by PmWiki v.2002016 •
• all content (unless otherwise noted) © 2018 A W Colley